sensor_id;sensor_type;location;lat;lon;timestamp;temperature;humidity
27858;DHT22;16852;51.446;6.528;2023-04-06T00:00:57;7.00;99.90
27858;DHT22;16852;51.446;6.528;2023-04-06T00:02:58;7.00;99.90
27858;DHT22;16852;51.446;6.528;2023-04-06T00:04:59;7.00;99.80
27858;DHT22;16852;51.446;6.528;2023-04-06T00:07:00;6.90;99.70
27858;DHT22;16852;51.446;6.528;2023-04-06T00:09:01;6.90;99.00
27858;DHT22;16852;51.446;6.528;2023-04-06T00:11:02;6.90;98.70
27858;DHT22;16852;51.446;6.528;2023-04-06T00:13:02;6.80;98.60
27858;DHT22;16852;51.446;6.528;2023-04-06T00:15:03;6.80;99.50
27858;DHT22;16852;51.446;6.528;2023-04-06T00:17:05;6.80;99.90
27858;DHT22;16852;51.446;6.528;2023-04-06T00:19:06;6.80;99.90
27858;DHT22;16852;51.446;6.528;2023-04-06T00:21:07;6.80;99.90
27858;DHT22;16852;51.446;6.528;2023-04-06T00:23:07;6.80;99.90
27858;DHT22;16852;51.446;6.528;2023-04-06T00:25:09;6.80;99.90
27858;DHT22;16852;51.446;6.528;2023-04-06T00:27:10;6.80;99.90
27858;DHT22;16852;51.446;6.528;2023-04-06T00:29:11;6.70;99.90
27858;DHT22;16852;51.446;6.528;2023-04-06T00:31:12;6.70;99.90
27858;DHT22;16852;51.446;6.528;2023-04-06T00:33:13;6.70;99.90
27858;DHT22;16852;51.446;6.528;2023-04-06T00:35:14;6.70;99.90
27858;DHT22;16852;51.446;6.528;2023-04-06T00:37:16;6.70;99.90
27858;DHT22;16852;51.446;6.528;2023-04-06T00:39:16;6.70;99.90
27858;DHT22;16852;51.446;6.528;2023-04-06T00:41:18;6.70;99.90
27858;DHT22;16852;51.446;6.528;2023-04-06T00:43:18;6.70;99.90
27858;DHT22;16852;51.446;6.528;2023-04-06T00:45:19;6.60;99.90
27858;DHT22;16852;51.446;6.528;2023-04-06T00:47:21;6.70;99.90
27858;DHT22;16852;51.446;6.528;2023-04-06T00:49:22;6.70;99.90
27858;DHT22;16852;51.446;6.528;2023-04-06T00:51:22;6.70;99.90
27858;DHT22;16852;51.446;6.528;2023-04-06T00:53:23;6.70;99.90
27858;DHT22;16852;51.446;6.528;2023-04-06T00:55:24;6.70;99.90
27858;DHT22;16852;51.446;6.528;2023-04-06T00:57:25;6.70;99.90
27858;DHT22;16852;51.446;6.528;2023-04-06T00:59:27;6.70;99.90
27858;DHT22;16852;51.446;6.528;2023-04-06T01:01:28;6.70;99.90
27858;DHT22;16852;51.446;6.528;2023-04-06T01:03:29;6.60;99.90
27858;DHT22;16852;51.446;6.528;2023-04-06T01:05:30;6.60;99.90
27858;DHT22;16852;51.446;6.528;2023-04-06T01:07:33;6.60;99.90
27858;DHT22;16852;51.446;6.528;2023-04-06T01:09:33;6.60;99.90
27858;DHT22;16852;51.446;6.528;2023-04-06T01:11:35;6.60;99.90
27858;DHT22;16852;51.446;6.528;2023-04-06T01:13:37;6.50;99.90
27858;DHT22;16852;51.446;6.528;2023-04-06T01:15:37;6.50;99.90
27858;DHT22;16852;51.446;6.528;2023-04-06T01:17:39;6.40;99.90
27858;DHT22;16852;51.446;6.528;2023-04-06T01:19:40;6.40;99.90
27858;DHT22;16852;51.446;6.528;2023-04-06T01:21:41;6.40;99.90
27858;DHT22;16852;51.446;6.528;2023-04-06T01:23:46;6.40;99.90
27858;DHT22;16852;51.446;6.528;2023-04-06T01:25:47;6.30;99.90
27858;DHT22;16852;51.446;6.528;2023-04-06T01:27:48;6.30;99.90
27858;DHT22;16852;51.446;6.528;2023-04-06T01:29:48;6.30;99.90
27858;DHT22;16852;51.446;6.528;2023-04-06T01:31:49;6.30;99.90
27858;DHT22;16852;51.446;6.528;2023-04-06T01:33:50;6.20;99.90
27858;DHT22;16852;51.446;6.528;2023-04-06T01:35:51;6.20;99.90
27858;DHT22;16852;51.446;6.528;2023-04-06T01:37:54;6.20;99.90
27858;DHT22;16852;51.446;6.528;2023-04-06T01:39:55;6.20;99.90
27858;DHT22;16852;51.446;6.528;2023-04-06T01:41:56;6.20;99.90
27858;DHT22;16852;51.446;6.528;2023-04-06T01:43:57;6.10;99.90
27858;DHT22;16852;51.446;6.528;2023-04-06T01:45:58;6.10;99.90
27858;DHT22;16852;51.446;6.528;2023-04-06T01:47:59;6.10;99.90
27858;DHT22;16852;51.446;6.528;2023-04-06T01:50:00;6.10;99.90
27858;DHT22;16852;51.446;6.528;2023-04-06T01:52:01;6.10;99.90
27858;DHT22;16852;51.446;6.528;2023-04-06T01:54:02;6.10;99.90
27858;DHT22;16852;51.446;6.528;2023-04-06T01:56:03;6.10;99.90
27858;DHT22;16852;51.446;6.528;2023-04-06T01:58:04;6.10;99.90
27858;DHT22;16852;51.446;6.528;2023-04-06T02:00:05;6.00;99.90
27858;DHT22;16852;51.446;6.528;2023-04-06T02:02:06;6.00;99.90
27858;DHT22;16852;51.446;6.528;2023-04-06T02:04:07;6.00;99.90
27858;DHT22;16852;51.446;6.528;2023-04-06T02:06:07;6.00;99.90
27858;DHT22;16852;51.446;6.528;2023-04-06T02:08:08;5.90;99.90
27858;DHT22;16852;51.446;6.528;2023-04-06T02:10:13;5.90;99.90
27858;DHT22;16852;51.446;6.528;2023-04-06T02:12:14;5.80;99.90
27858;DHT22;16852;51.446;6.528;2023-04-06T02:14:15;5.70;99.90
27858;DHT22;16852;51.446;6.528;2023-04-06T02:16:16;5.60;99.90
27858;DHT22;16852;51.446;6.528;2023-04-06T02:18:17;5.60;99.90
27858;DHT22;16852;51.446;6.528;2023-04-06T02:20:18;5.60;99.90
27858;DHT22;16852;51.446;6.528;2023-04-06T02:22:19;5.50;99.90
27858;DHT22;16852;51.446;6.528;2023-04-06T02:24:20;5.50;99.90
27858;DHT22;16852;51.446;6.528;2023-04-06T02:26:21;5.50;99.90
27858;DHT22;16852;51.446;6.528;2023-04-06T02:28:22;5.50;99.90
27858;DHT22;16852;51.446;6.528;2023-04-06T02:30:23;5.50;99.90
27858;DHT22;16852;51.446;6.528;2023-04-06T02:32:24;5.50;99.90
27858;DHT22;16852;51.446;6.528;2023-04-06T02:34:25;5.50;99.90
27858;DHT22;16852;51.446;6.528;2023-04-06T02:36:25;5.50;99.90
27858;DHT22;16852;51.446;6.528;2023-04-06T02:38:26;5.50;99.90
27858;DHT22;16852;51.446;6.528;2023-04-06T02:40:27;5.50;99.90
27858;DHT22;16852;51.446;6.528;2023-04-06T02:42:28;5.50;99.90
27858;DHT22;16852;51.446;6.528;2023-04-06T02:44:29;5.50;99.90
27858;DHT22;16852;51.446;6.528;2023-04-06T02:46:29;5.50;99.90
27858;DHT22;16852;51.446;6.528;2023-04-06T02:48:31;5.50;99.90
27858;DHT22;16852;51.446;6.528;2023-04-06T02:50:32;5.50;99.90
27858;DHT22;16852;51.446;6.528;2023-04-06T02:52:33;5.50;99.90
27858;DHT22;16852;51.446;6.528;2023-04-06T02:54:33;5.50;99.90
27858;DHT22;16852;51.446;6.528;2023-04-06T02:56:34;5.50;99.90
27858;DHT22;16852;51.446;6.528;2023-04-06T02:58:35;5.40;99.90
27858;DHT22;16852;51.446;6.528;2023-04-06T03:00:37;5.40;99.90
27858;DHT22;16852;51.446;6.528;2023-04-06T03:02:37;5.40;99.90
27858;DHT22;16852;51.446;6.528;2023-04-06T03:04:38;5.40;99.90
27858;DHT22;16852;51.446;6.528;2023-04-06T03:06:39;5.30;99.90
27858;DHT22;16852;51.446;6.528;2023-04-06T03:08:40;5.30;99.90
27858;DHT22;16852;51.446;6.528;2023-04-06T03:10:41;5.30;99.90
27858;DHT22;16852;51.446;6.528;2023-04-06T03:12:42;5.30;99.90
27858;DHT22;16852;51.446;6.528;2023-04-06T03:14:42;5.20;99.90
27858;DHT22;16852;51.446;6.528;2023-04-06T03:16:43;5.20;99.90
27858;DHT22;16852;51.446;6.528;2023-04-06T03:18:44;5.20;99.90
27858;DHT22;16852;51.446;6.528;2023-04-06T03:20:47;5.20;99.90
27858;DHT22;16852;51.446;6.528;2023-04-06T03:22:48;5.20;99.90
27858;DHT22;16852;51.446;6.528;2023-04-06T03:24:49;5.20;99.90
27858;DHT22;16852;51.446;6.528;2023-04-06T03:26:50;5.20;99.90
27858;DHT22;16852;51.446;6.528;2023-04-06T03:28:51;5.20;99.90
27858;DHT22;16852;51.446;6.528;2023-04-06T03:30:52;5.20;99.90
27858;DHT22;16852;51.446;6.528;2023-04-06T03:32:52;5.30;99.90
27858;DHT22;16852;51.446;6.528;2023-04-06T03:34:53;5.30;99.90
27858;DHT22;16852;51.446;6.528;2023-04-06T03:36:54;5.30;99.90
27858;DHT22;16852;51.446;6.528;2023-04-06T03:38:55;5.30;99.90
27858;DHT22;16852;51.446;6.528;2023-04-06T03:40:56;5.30;99.90
27858;DHT22;16852;51.446;6.528;2023-04-06T03:42:56;5.30;99.90
27858;DHT22;16852;51.446;6.528;2023-04-06T03:44:58;5.30;99.90
27858;DHT22;16852;51.446;6.528;2023-04-06T03:46:58;5.30;99.90
27858;DHT22;16852;51.446;6.528;2023-04-06T03:48:59;5.30;99.90
27858;DHT22;16852;51.446;6.528;2023-04-06T03:51:00;5.30;99.90
27858;DHT22;16852;51.446;6.528;2023-04-06T03:53:01;5.30;99.90
27858;DHT22;16852;51.446;6.528;2023-04-06T03:55:03;5.30;99.90
27858;DHT22;16852;51.446;6.528;2023-04-06T03:57:04;5.30;99.90
27858;DHT22;16852;51.446;6.528;2023-04-06T03:59:05;5.30;99.90
27858;DHT22;16852;51.446;6.528;2023-04-06T04:01:06;5.30;99.90
27858;DHT22;16852;51.446;6.528;2023-04-06T04:03:07;5.30;99.90
27858;DHT22;16852;51.446;6.528;2023-04-06T04:05:08;5.30;99.90
27858;DHT22;16852;51.446;6.528;2023-04-06T04:07:09;5.30;99.90
27858;DHT22;16852;51.446;6.528;2023-04-06T04:09:10;5.30;99.90
27858;DHT22;16852;51.446;6.528;2023-04-06T04:11:11;5.30;99.90
27858;DHT22;16852;51.446;6.528;2023-04-06T04:13:11;5.30;99.90
27858;DHT22;16852;51.446;6.528;2023-04-06T04:15:12;5.30;99.90
27858;DHT22;16852;51.446;6.528;2023-04-06T04:17:13;5.30;99.90
27858;DHT22;16852;51.446;6.528;2023-04-06T04:19:13;5.30;99.90
27858;DHT22;16852;51.446;6.528;2023-04-06T04:21:14;5.30;99.90
27858;DHT22;16852;51.446;6.528;2023-04-06T04:23:15;5.40;99.90
27858;DHT22;16852;51.446;6.528;2023-04-06T04:25:16;5.40;99.90
27858;DHT22;16852;51.446;6.528;2023-04-06T04:27:16;5.40;99.90
27858;DHT22;16852;51.446;6.528;2023-04-06T04:29:17;5.40;99.90
27858;DHT22;16852;51.446;6.528;2023-04-06T04:31:21;5.30;99.90
27858;DHT22;16852;51.446;6.528;2023-04-06T04:33:23;5.40;99.90
27858;DHT22;16852;51.446;6.528;2023-04-06T04:35:23;5.40;99.90
27858;DHT22;16852;51.446;6.528;2023-04-06T04:37:24;5.30;99.90
27858;DHT22;16852;51.446;6.528;2023-04-06T04:39:25;5.30;99.90
27858;DHT22;16852;51.446;6.528;2023-04-06T04:41:26;5.30;99.90
27858;DHT22;16852;51.446;6.528;2023-04-06T04:43:27;5.30;99.90
27858;DHT22;16852;51.446;6.528;2023-04-06T04:45:28;5.30;99.90
27858;DHT22;16852;51.446;6.528;2023-04-06T04:47:28;5.30;99.90
27858;DHT22;16852;51.446;6.528;2023-04-06T04:49:29;5.30;99.90
27858;DHT22;16852;51.446;6.528;2023-04-06T04:51:30;5.30;99.90
27858;DHT22;16852;51.446;6.528;2023-04-06T04:53:33;5.30;99.90
27858;DHT22;16852;51.446;6.528;2023-04-06T04:55:34;5.40;99.90
27858;DHT22;16852;51.446;6.528;2023-04-06T04:57:35;5.40;99.90
27858;DHT22;16852;51.446;6.528;2023-04-06T04:59:35;5.30;99.90
27858;DHT22;16852;51.446;6.528;2023-04-06T05:01:36;5.30;99.90
27858;DHT22;16852;51.446;6.528;2023-04-06T05:03:37;5.30;99.90
27858;DHT22;16852;51.446;6.528;2023-04-06T05:05:39;5.20;99.90
27858;DHT22;16852;51.446;6.528;2023-04-06T05:07:40;5.20;99.90
27858;DHT22;16852;51.446;6.528;2023-04-06T05:09:40;5.20;99.90
27858;DHT22;16852;51.446;6.528;2023-04-06T05:11:41;5.20;99.90
27858;DHT22;16852;51.446;6.528;2023-04-06T05:13:42;5.10;99.90
27858;DHT22;16852;51.446;6.528;2023-04-06T05:15:43;5.20;99.90
27858;DHT22;16852;51.446;6.528;2023-04-06T05:17:44;5.10;99.90
27858;DHT22;16852;51.446;6.528;2023-04-06T05:19:44;5.10;99.90
27858;DHT22;16852;51.446;6.528;2023-04-06T05:21:45;5.10;99.90
27858;DHT22;16852;51.446;6.528;2023-04-06T05:23:46;5.10;99.90
27858;DHT22;16852;51.446;6.528;2023-04-06T05:25:47;5.10;99.90
27858;DHT22;16852;51.446;6.528;2023-04-06T05:27:48;5.20;99.90
27858;DHT22;16852;51.446;6.528;2023-04-06T05:29:49;5.10;99.90
27858;DHT22;16852;51.446;6.528;2023-04-06T05:31:51;5.20;99.90
27858;DHT22;16852;51.446;6.528;2023-04-06T05:33:51;5.20;99.90
27858;DHT22;16852;51.446;6.528;2023-04-06T05:35:52;5.10;99.90
27858;DHT22;16852;51.446;6.528;2023-04-06T05:37:53;5.20;99.90
27858;DHT22;16852;51.446;6.528;2023-04-06T05:39:54;5.20;99.90
27858;DHT22;16852;51.446;6.528;2023-04-06T05:41:55;5.20;99.90
27858;DHT22;16852;51.446;6.528;2023-04-06T05:43:56;5.20;99.90
27858;DHT22;16852;51.446;6.528;2023-04-06T05:45:57;5.20;99.90
27858;DHT22;16852;51.446;6.528;2023-04-06T05:47:58;5.30;99.90
27858;DHT22;16852;51.446;6.528;2023-04-06T05:49:59;5.30;99.90
27858;DHT22;16852;51.446;6.528;2023-04-06T05:52:01;5.20;99.90
27858;DHT22;16852;51.446;6.528;2023-04-06T05:54:01;5.20;99.90
27858;DHT22;16852;51.446;6.528;2023-04-06T05:56:02;5.20;99.90
27858;DHT22;16852;51.446;6.528;2023-04-06T05:58:03;5.30;99.90
27858;DHT22;16852;51.446;6.528;2023-04-06T06:00:06;5.30;99.90
27858;DHT22;16852;51.446;6.528;2023-04-06T06:02:09;5.30;99.90
27858;DHT22;16852;51.446;6.528;2023-04-06T06:04:10;5.20;99.90
27858;DHT22;16852;51.446;6.528;2023-04-06T06:06:11;5.20;99.90
27858;DHT22;16852;51.446;6.528;2023-04-06T06:08:12;5.20;99.90
27858;DHT22;16852;51.446;6.528;2023-04-06T06:10:13;5.30;99.90
27858;DHT22;16852;51.446;6.528;2023-04-06T06:12:13;5.20;99.90
27858;DHT22;16852;51.446;6.528;2023-04-06T06:14:14;5.30;99.90
27858;DHT22;16852;51.446;6.528;2023-04-06T06:16:16;5.30;99.90
27858;DHT22;16852;51.446;6.528;2023-04-06T06:18:17;5.30;99.90
27858;DHT22;16852;51.446;6.528;2023-04-06T06:20:18;5.40;99.90
27858;DHT22;16852;51.446;6.528;2023-04-06T06:22:20;5.40;99.90
27858;DHT22;16852;51.446;6.528;2023-04-06T06:24:20;5.40;99.90
27858;DHT22;16852;51.446;6.528;2023-04-06T06:26:21;5.50;99.90
27858;DHT22;16852;51.446;6.528;2023-04-06T06:28:22;5.60;99.90
27858;DHT22;16852;51.446;6.528;2023-04-06T06:30:23;5.70;99.90
27858;DHT22;16852;51.446;6.528;2023-04-06T06:32:23;5.70;99.90
27858;DHT22;16852;51.446;6.528;2023-04-06T06:34:25;5.90;99.90
27858;DHT22;16852;51.446;6.528;2023-04-06T06:36:26;6.10;99.90
27858;DHT22;16852;51.446;6.528;2023-04-06T06:38:27;6.50;99.90
27858;DHT22;16852;51.446;6.528;2023-04-06T06:40:28;6.70;99.90
27858;DHT22;16852;51.446;6.528;2023-04-06T06:42:28;7.10;99.90
27858;DHT22;16852;51.446;6.528;2023-04-06T06:44:30;7.20;99.90
27858;DHT22;16852;51.446;6.528;2023-04-06T06:46:31;7.40;99.90
27858;DHT22;16852;51.446;6.528;2023-04-06T06:48:32;7.70;99.90
27858;DHT22;16852;51.446;6.528;2023-04-06T06:50:32;8.00;99.90
27858;DHT22;16852;51.446;6.528;2023-04-06T06:52:33;8.30;99.90
27858;DHT22;16852;51.446;6.528;2023-04-06T06:54:34;8.40;99.90
27858;DHT22;16852;51.446;6.528;2023-04-06T06:56:38;8.70;99.90
27858;DHT22;16852;51.446;6.528;2023-04-06T06:58:39;8.90;99.90
27858;DHT22;16852;51.446;6.528;2023-04-06T07:00:40;9.20;99.90
27858;DHT22;16852;51.446;6.528;2023-04-06T07:02:41;9.40;99.90
27858;DHT22;16852;51.446;6.528;2023-04-06T07:04:41;9.70;99.90
27858;DHT22;16852;51.446;6.528;2023-04-06T07:06:42;9.70;99.90
27858;DHT22;16852;51.446;6.528;2023-04-06T07:08:43;9.70;98.40
27858;DHT22;16852;51.446;6.528;2023-04-06T07:10:43;9.90;97.70
27858;DHT22;16852;51.446;6.528;2023-04-06T07:12:45;10.00;99.00
27858;DHT22;16852;51.446;6.528;2023-04-06T07:14:47;10.00;96.40
27858;DHT22;16852;51.446;6.528;2023-04-06T07:16:48;10.00;98.50
27858;DHT22;16852;51.446;6.528;2023-04-06T07:18:53;9.90;96.50
27858;DHT22;16852;51.446;6.528;2023-04-06T07:20:53;10.10;97.40
27858;DHT22;16852;51.446;6.528;2023-04-06T07:22:54;10.30;96.50
27858;DHT22;16852;51.446;6.528;2023-04-06T07:24:55;10.50;97.20
27858;DHT22;16852;51.446;6.528;2023-04-06T07:26:57;10.60;96.20
27858;DHT22;16852;51.446;6.528;2023-04-06T07:28:58;10.70;96.40
27858;DHT22;16852;51.446;6.528;2023-04-06T07:30:59;10.90;95.80
27858;DHT22;16852;51.446;6.528;2023-04-06T07:33:00;10.90;94.20
27858;DHT22;16852;51.446;6.528;2023-04-06T07:35:01;11.00;94.40
27858;DHT22;16852;51.446;6.528;2023-04-06T07:37:02;11.20;96.40
27858;DHT22;16852;51.446;6.528;2023-04-06T07:39:03;11.30;95.10
27858;DHT22;16852;51.446;6.528;2023-04-06T07:41:04;11.40;94.80
27858;DHT22;16852;51.446;6.528;2023-04-06T07:43:05;11.50;93.20
27858;DHT22;16852;51.446;6.528;2023-04-06T07:45:06;11.60;94.20
27858;DHT22;16852;51.446;6.528;2023-04-06T07:47:08;11.60;93.70
27858;DHT22;16852;51.446;6.528;2023-04-06T07:49:08;11.60;93.40
27858;DHT22;16852;51.446;6.528;2023-04-06T07:51:09;11.60;92.00
27858;DHT22;16852;51.446;6.528;2023-04-06T07:53:33;11.60;93.60
27858;DHT22;16852;51.446;6.528;2023-04-06T07:55:33;11.60;95.00
27858;DHT22;16852;51.446;6.528;2023-04-06T07:57:34;11.50;92.40
27858;DHT22;16852;51.446;6.528;2023-04-06T07:59:35;11.40;92.20
27858;DHT22;16852;51.446;6.528;2023-04-06T08:01:36;11.30;93.20
27858;DHT22;16852;51.446;6.528;2023-04-06T08:03:36;11.30;93.00
27858;DHT22;16852;51.446;6.528;2023-04-06T08:05:37;11.20;92.70
27858;DHT22;16852;51.446;6.528;2023-04-06T08:07:38;11.20;93.10
27858;DHT22;16852;51.446;6.528;2023-04-06T08:09:39;11.20;92.40
27858;DHT22;16852;51.446;6.528;2023-04-06T08:11:39;11.20;92.30
27858;DHT22;16852;51.446;6.528;2023-04-06T08:13:40;11.20;93.60
27858;DHT22;16852;51.446;6.528;2023-04-06T08:15:41;11.20;92.60
27858;DHT22;16852;51.446;6.528;2023-04-06T08:17:42;11.40;93.80
27858;DHT22;16852;51.446;6.528;2023-04-06T08:19:43;11.40;92.40
27858;DHT22;16852;51.446;6.528;2023-04-06T08:21:45;11.50;93.00
27858;DHT22;16852;51.446;6.528;2023-04-06T08:23:46;11.50;91.70
27858;DHT22;16852;51.446;6.528;2023-04-06T08:25:47;11.50;91.10
27858;DHT22;16852;51.446;6.528;2023-04-06T08:27:48;11.50;91.70
27858;DHT22;16852;51.446;6.528;2023-04-06T08:29:49;11.60;92.60
27858;DHT22;16852;51.446;6.528;2023-04-06T08:31:51;11.50;91.60
27858;DHT22;16852;51.446;6.528;2023-04-06T08:33:51;11.50;92.10
27858;DHT22;16852;51.446;6.528;2023-04-06T08:35:52;11.60;93.70
27858;DHT22;16852;51.446;6.528;2023-04-06T08:37:53;11.60;91.90
27858;DHT22;16852;51.446;6.528;2023-04-06T08:39:53;11.70;91.30
27858;DHT22;16852;51.446;6.528;2023-04-06T08:41:55;11.70;92.10
27858;DHT22;16852;51.446;6.528;2023-04-06T08:44:01;11.70;91.80
27858;DHT22;16852;51.446;6.528;2023-04-06T08:46:03;11.70;90.40
27858;DHT22;16852;51.446;6.528;2023-04-06T08:48:05;11.80;91.20
27858;DHT22;16852;51.446;6.528;2023-04-06T08:50:08;11.80;90.60
27858;DHT22;16852;51.446;6.528;2023-04-06T08:52:10;11.80;90.50
27858;DHT22;16852;51.446;6.528;2023-04-06T08:54:11;11.80;89.40
27858;DHT22;16852;51.446;6.528;2023-04-06T08:56:15;11.80;90.90
27858;DHT22;16852;51.446;6.528;2023-04-06T08:58:17;11.80;91.10
27858;DHT22;16852;51.446;6.528;2023-04-06T09:00:18;11.80;90.80
27858;DHT22;16852;51.446;6.528;2023-04-06T09:02:19;11.80;90.90
27858;DHT22;16852;51.446;6.528;2023-04-06T09:04:20;11.80;90.40
27858;DHT22;16852;51.446;6.528;2023-04-06T09:06:21;11.70;89.50
27858;DHT22;16852;51.446;6.528;2023-04-06T09:08:22;11.80;90.00
27858;DHT22;16852;51.446;6.528;2023-04-06T09:10:23;11.80;91.20
27858;DHT22;16852;51.446;6.528;2023-04-06T09:12:30;11.80;90.60
27858;DHT22;16852;51.446;6.528;2023-04-06T09:14:37;11.80;89.80
27858;DHT22;16852;51.446;6.528;2023-04-06T09:16:43;11.70;88.10
27858;DHT22;16852;51.446;6.528;2023-04-06T09:18:44;11.70;88.40
27858;DHT22;16852;51.446;6.528;2023-04-06T09:20:57;11.70;89.40
27858;DHT22;16852;51.446;6.528;2023-04-06T09:22:58;11.70;90.80
27858;DHT22;16852;51.446;6.528;2023-04-06T09:24:59;11.70;89.50
27858;DHT22;16852;51.446;6.528;2023-04-06T09:26:59;11.80;90.00
27858;DHT22;16852;51.446;6.528;2023-04-06T09:29:00;11.80;89.30
27858;DHT22;16852;51.446;6.528;2023-04-06T09:31:01;11.80;90.90
27858;DHT22;16852;51.446;6.528;2023-04-06T09:33:02;11.80;88.10
27858;DHT22;16852;51.446;6.528;2023-04-06T09:35:07;11.80;88.90
27858;DHT22;16852;51.446;6.528;2023-04-06T09:37:18;11.70;89.90
27858;DHT22;16852;51.446;6.528;2023-04-06T09:39:21;11.80;90.40
27858;DHT22;16852;51.446;6.528;2023-04-06T09:41:35;11.90;90.30
27858;DHT22;16852;51.446;6.528;2023-04-06T09:43:36;11.80;90.80
27858;DHT22;16852;51.446;6.528;2023-04-06T09:45:37;11.90;90.20
27858;DHT22;16852;51.446;6.528;2023-04-06T09:47:42;11.90;90.50
27858;DHT22;16852;51.446;6.528;2023-04-06T09:49:43;11.90;90.00
27858;DHT22;16852;51.446;6.528;2023-04-06T09:51:53;12.00;90.70
27858;DHT22;16852;51.446;6.528;2023-04-06T09:53:55;12.00;90.40
27858;DHT22;16852;51.446;6.528;2023-04-06T09:56:03;12.10;90.00
27858;DHT22;16852;51.446;6.528;2023-04-06T09:58:05;12.10;89.00
27858;DHT22;16852;51.446;6.528;2023-04-06T10:00:09;12.10;90.10
27858;DHT22;16852;51.446;6.528;2023-04-06T10:02:33;12.20;90.30
27858;DHT22;16852;51.446;6.528;2023-04-06T10:04:43;12.30;88.30
27858;DHT22;16852;51.446;6.528;2023-04-06T10:06:48;12.30;90.00
27858;DHT22;16852;51.446;6.528;2023-04-06T10:08:54;12.40;90.80
27858;DHT22;16852;51.446;6.528;2023-04-06T10:10:55;12.40;90.40
27858;DHT22;16852;51.446;6.528;2023-04-06T10:12:57;12.50;91.10
27858;DHT22;16852;51.446;6.528;2023-04-06T10:14:58;12.60;88.40
27858;DHT22;16852;51.446;6.528;2023-04-06T10:16:59;12.60;87.30
27858;DHT22;16852;51.446;6.528;2023-04-06T10:19:16;12.50;89.00
27858;DHT22;16852;51.446;6.528;2023-04-06T10:21:21;12.60;87.20
27858;DHT22;16852;51.446;6.528;2023-04-06T10:26:16;12.60;89.80
27858;DHT22;16852;51.446;6.528;2023-04-06T10:28:19;12.70;89.80
27858;DHT22;16852;51.446;6.528;2023-04-06T10:30:20;12.80;90.30
27858;DHT22;16852;51.446;6.528;2023-04-06T10:32:34;12.90;91.00
27858;DHT22;16852;51.446;6.528;2023-04-06T10:34:36;12.90;90.00
27858;DHT22;16852;51.446;6.528;2023-04-06T10:36:37;13.00;90.90
27858;DHT22;16852;51.446;6.528;2023-04-06T10:38:39;13.00;91.20
27858;DHT22;16852;51.446;6.528;2023-04-06T10:40:42;13.10;91.50
27858;DHT22;16852;51.446;6.528;2023-04-06T10:42:48;13.10;90.60
27858;DHT22;16852;51.446;6.528;2023-04-06T10:44:49;13.10;91.40
27858;DHT22;16852;51.446;6.528;2023-04-06T10:46:59;13.10;91.20
27858;DHT22;16852;51.446;6.528;2023-04-06T10:49:11;13.10;91.10
27858;DHT22;16852;51.446;6.528;2023-04-06T10:51:16;13.10;92.10
27858;DHT22;16852;51.446;6.528;2023-04-06T10:53:25;13.10;92.50
27858;DHT22;16852;51.446;6.528;2023-04-06T10:55:29;13.10;91.40
27858;DHT22;16852;51.446;6.528;2023-04-06T10:57:30;13.00;92.40
27858;DHT22;16852;51.446;6.528;2023-04-06T10:59:34;13.10;92.80
27858;DHT22;16852;51.446;6.528;2023-04-06T11:01:35;13.10;93.30
27858;DHT22;16852;51.446;6.528;2023-04-06T11:03:43;13.00;93.30
27858;DHT22;16852;51.446;6.528;2023-04-06T11:05:45;13.00;92.50
27858;DHT22;16852;51.446;6.528;2023-04-06T11:07:46;12.90;92.60
27858;DHT22;16852;51.446;6.528;2023-04-06T11:09:49;13.00;92.60
27858;DHT22;16852;51.446;6.528;2023-04-06T11:11:50;12.90;92.70
27858;DHT22;16852;51.446;6.528;2023-04-06T11:15:53;12.90;91.60
27858;DHT22;16852;51.446;6.528;2023-04-06T11:17:54;12.90;92.00
27858;DHT22;16852;51.446;6.528;2023-04-06T11:19:55;12.90;93.20
27858;DHT22;16852;51.446;6.528;2023-04-06T11:21:56;12.90;92.30
27858;DHT22;16852;51.446;6.528;2023-04-06T11:24:17;12.90;90.50
27858;DHT22;16852;51.446;6.528;2023-04-06T11:26:18;12.90;91.10
27858;DHT22;16852;51.446;6.528;2023-04-06T11:28:19;13.00;91.70
27858;DHT22;16852;51.446;6.528;2023-04-06T11:30:20;13.00;92.40
27858;DHT22;16852;51.446;6.528;2023-04-06T11:32:21;13.10;92.40
27858;DHT22;16852;51.446;6.528;2023-04-06T11:34:23;13.10;92.30
27858;DHT22;16852;51.446;6.528;2023-04-06T11:36:27;13.10;91.40
27858;DHT22;16852;51.446;6.528;2023-04-06T11:38:30;13.10;92.50
27858;DHT22;16852;51.446;6.528;2023-04-06T11:40:31;13.20;92.20
27858;DHT22;16852;51.446;6.528;2023-04-06T11:42:34;13.10;92.20
27858;DHT22;16852;51.446;6.528;2023-04-06T11:44:44;13.10;92.10
27858;DHT22;16852;51.446;6.528;2023-04-06T11:46:53;13.20;93.50
27858;DHT22;16852;51.446;6.528;2023-04-06T11:48:58;13.20;93.40
27858;DHT22;16852;51.446;6.528;2023-04-06T11:51:01;13.30;93.10
27858;DHT22;16852;51.446;6.528;2023-04-06T11:53:04;13.30;93.60
27858;DHT22;16852;51.446;6.528;2023-04-06T11:55:15;13.30;92.40
27858;DHT22;16852;51.446;6.528;2023-04-06T11:57:18;13.30;92.80
27858;DHT22;16852;51.446;6.528;2023-04-06T11:59:19;13.30;92.60
27858;DHT22;16852;51.446;6.528;2023-04-06T12:01:20;13.30;90.80
27858;DHT22;16852;51.446;6.528;2023-04-06T12:03:20;13.30;90.10
27858;DHT22;16852;51.446;6.528;2023-04-06T12:05:21;13.30;91.30
27858;DHT22;16852;51.446;6.528;2023-04-06T12:07:22;13.30;91.10
27858;DHT22;16852;51.446;6.528;2023-04-06T12:09:22;13.30;91.30
27858;DHT22;16852;51.446;6.528;2023-04-06T12:11:23;13.20;90.90
27858;DHT22;16852;51.446;6.528;2023-04-06T12:13:24;13.30;92.40
27858;DHT22;16852;51.446;6.528;2023-04-06T12:15:25;13.30;91.50
27858;DHT22;16852;51.446;6.528;2023-04-06T12:17:26;13.20;92.20
27858;DHT22;16852;51.446;6.528;2023-04-06T12:19:26;13.20;91.50
27858;DHT22;16852;51.446;6.528;2023-04-06T12:21:27;13.10;93.30
27858;DHT22;16852;51.446;6.528;2023-04-06T12:23:34;13.10;92.90
27858;DHT22;16852;51.446;6.528;2023-04-06T12:25:35;13.10;91.70
27858;DHT22;16852;51.446;6.528;2023-04-06T12:27:35;13.20;93.30
27858;DHT22;16852;51.446;6.528;2023-04-06T12:29:37;13.20;93.40
27858;DHT22;16852;51.446;6.528;2023-04-06T12:31:38;13.10;92.30
27858;DHT22;16852;51.446;6.528;2023-04-06T12:33:40;13.10;92.30
27858;DHT22;16852;51.446;6.528;2023-04-06T12:35:41;13.20;94.20
27858;DHT22;16852;51.446;6.528;2023-04-06T12:37:42;13.10;94.00
27858;DHT22;16852;51.446;6.528;2023-04-06T12:39:42;13.10;94.40
27858;DHT22;16852;51.446;6.528;2023-04-06T12:41:44;13.00;93.80
27858;DHT22;16852;51.446;6.528;2023-04-06T12:43:45;12.90;94.00
27858;DHT22;16852;51.446;6.528;2023-04-06T12:45:46;13.00;94.30
27858;DHT22;16852;51.446;6.528;2023-04-06T12:47:47;12.90;93.20
27858;DHT22;16852;51.446;6.528;2023-04-06T12:49:48;12.90;93.10
27858;DHT22;16852;51.446;6.528;2023-04-06T12:51:48;12.90;93.90
27858;DHT22;16852;51.446;6.528;2023-04-06T12:53:50;12.90;93.70
27858;DHT22;16852;51.446;6.528;2023-04-06T12:55:52;12.90;94.10
27858;DHT22;16852;51.446;6.528;2023-04-06T12:57:53;12.90;93.70
27858;DHT22;16852;51.446;6.528;2023-04-06T12:59:56;12.80;95.10
27858;DHT22;16852;51.446;6.528;2023-04-06T13:01:57;12.80;94.90